createdAt,value
2019-05-29T04:03:04.348Z,31.10
2019-05-29T04:06:00.035Z,31.10
2019-05-29T04:08:55.486Z,31.10
2019-05-29T04:11:49.477Z,31.20
2019-05-29T04:14:44.226Z,31.20
2019-05-29T04:17:38.603Z,31.20
2019-05-29T04:20:35.871Z,31.20
2019-05-29T04:23:38.259Z,30.00
2019-05-29T04:26:46.591Z,29.00
2019-05-29T04:29:41.024Z,28.40
2019-05-29T04:32:38.489Z,28.00
2019-05-29T04:35:34.690Z,27.70
2019-05-29T04:38:30.926Z,27.50
2019-05-29T04:41:25.849Z,27.30
2019-05-29T04:44:19.915Z,27.20
2019-05-29T04:47:15.577Z,27.00
2019-05-29T04:50:08.712Z,27.00
2019-05-29T04:53:05.629Z,27.50
2019-05-29T04:55:58.979Z,27.30
2019-05-29T04:58:52.736Z,27.10
2019-05-29T05:01:45.135Z,27.00
2019-05-29T05:04:41.792Z,26.90
2019-05-29T05:07:43.070Z,27.00
2019-05-29T05:10:41.203Z,27.00
2019-05-29T05:13:35.568Z,27.30
2019-05-29T05:16:35.761Z,27.20
2019-05-29T05:19:35.951Z,27.00
2019-05-29T05:22:38.205Z,26.90
2019-05-29T05:25:41.268Z,27.20
2019-05-29T05:28:45.270Z,27.00
2019-05-29T05:31:38.793Z,27.00
2019-05-29T05:34:32.603Z,27.00
2019-05-29T05:37:27.180Z,26.80
2019-05-29T05:40:30.786Z,26.80
2019-05-29T05:43:30.735Z,26.70
2019-05-29T05:46:30.932Z,26.70
2019-05-29T05:49:24.998Z,26.70
2019-05-29T05:52:26.220Z,26.70
2019-05-29T05:55:23.705Z,26.60
2019-05-29T05:58:22.965Z,26.50
2019-05-29T06:01:22.277Z,26.50
2019-05-29T06:04:18.367Z,26.50
2019-05-29T06:07:12.401Z,26.50
2019-05-29T06:10:06.869Z,26.50
2019-05-29T06:13:01.462Z,26.50
2019-05-29T06:15:55.435Z,26.40
2019-05-29T06:18:49.855Z,26.50
2019-05-29T06:21:47.084Z,26.50
2019-05-29T06:24:43.424Z,26.40
2019-05-29T06:27:47.161Z,26.30
2019-05-29T06:30:44.884Z,26.30
2019-05-29T06:33:39.467Z,26.30
2019-05-29T06:36:33.455Z,26.30
2019-05-29T06:39:27.761Z,26.90
2019-05-29T06:42:31.774Z,27.50
2019-05-29T06:45:42.448Z,27.80
2019-05-29T06:48:58.697Z,28.00
2019-05-29T06:51:43.713Z,28.20
2019-05-29T06:54:39.891Z,28.40
2019-05-29T06:57:38.102Z,28.50
2019-05-29T07:00:37.385Z,28.60
2019-05-29T07:03:35.614Z,28.60
2019-05-29T07:06:44.705Z,28.70
2019-05-29T07:09:45.484Z,28.80
2019-05-29T07:12:44.505Z,28.90
2019-05-29T07:15:40.662Z,29.00
2019-05-29T07:18:34.397Z,29.00
2019-05-29T07:21:33.994Z,29.00
2019-05-29T07:24:32.239Z,29.10
2019-05-29T07:27:43.519Z,29.30
2019-05-29T07:30:44.235Z,29.30
2019-05-29T07:33:34.993Z,29.20
2019-05-29T07:36:29.499Z,29.20
2019-05-29T07:39:24.012Z,29.20
2019-05-29T07:42:29.548Z,29.20
2019-05-29T07:45:29.931Z,29.20
2019-05-29T07:48:40.528Z,29.20
2019-05-29T07:51:47.188Z,29.30
2019-05-29T07:54:41.595Z,29.30
2019-05-29T07:57:35.461Z,29.20
2019-05-29T08:00:35.477Z,29.30
2019-05-29T08:03:23.162Z,29.60
2019-05-29T08:06:17.266Z,29.60
2019-05-29T08:09:14.309Z,29.50
2019-05-29T08:12:11.565Z,29.50
2019-05-29T08:15:06.939Z,29.40
2019-05-29T08:18:01.023Z,29.40
2019-05-29T08:20:57.205Z,29.50
2019-05-29T08:23:55.161Z,29.50
2019-05-29T08:26:51.044Z,29.50
2019-05-29T08:29:44.741Z,29.50
2019-05-29T08:32:40.816Z,29.70
2019-05-29T08:35:34.588Z,29.90
2019-05-29T08:38:27.633Z,30.00
2019-05-29T08:41:21.778Z,30.00
2019-05-29T08:44:18.931Z,30.00
2019-05-29T08:47:13.615Z,29.90
2019-05-29T08:50:18.118Z,30.10
2019-05-29T08:53:06.282Z,30.00
2019-05-29T08:56:06.679Z,30.30
2019-05-29T08:59:09.338Z,30.50
2019-05-29T09:02:11.677Z,30.70
2019-05-29T09:05:14.743Z,30.80
2019-05-29T09:08:13.733Z,30.70
2019-05-29T09:11:19.850Z,30.40
2019-05-29T09:14:24.283Z,30.50
2019-05-29T09:17:34.590Z,30.60
2019-05-29T09:21:01.020Z,30.50
2019-05-29T09:23:38.534Z,30.50
2019-05-29T09:26:46.419Z,30.70
2019-05-29T09:29:43.697Z,30.90
2019-05-29T09:32:50.939Z,31.10
2019-05-29T09:35:45.749Z,31.10
2019-05-29T09:38:46.425Z,31.20
2019-05-29T09:41:42.946Z,31.30
2019-05-29T09:44:39.875Z,31.40
2019-05-29T09:47:36.913Z,31.40
2019-05-29T09:50:50.129Z,31.50
2019-05-29T09:53:49.462Z,31.50
2019-05-29T09:56:54.920Z,31.30
2019-05-29T09:59:56.413Z,31.10
2019-05-29T10:02:55.428Z,30.90
2019-05-29T10:06:09.325Z,30.80
2019-05-29T10:09:11.840Z,30.80
2019-05-29T10:12:10.445Z,30.70
2019-05-29T10:15:06.452Z,30.70
2019-05-29T10:18:07.382Z,30.60
2019-05-29T10:21:05.129Z,29.70
2019-05-29T10:24:02.070Z,28.90
2019-05-29T10:27:10.096Z,28.60
2019-05-29T10:30:14.631Z,28.40
2019-05-29T10:33:13.065Z,28.20
2019-05-29T10:36:15.547Z,28.10
2019-05-29T10:39:19.660Z,27.90
2019-05-29T10:42:24.761Z,27.90
2019-05-29T10:45:24.418Z,28.60
2019-05-29T10:48:22.354Z,29.10
2019-05-29T10:51:21.465Z,29.30
2019-05-29T10:54:19.880Z,29.40
2019-05-29T10:57:19.018Z,29.70
2019-05-29T11:00:19.968Z,29.70
2019-05-29T11:03:19.059Z,29.70
2019-05-29T11:06:25.901Z,29.60
2019-05-29T11:09:43.337Z,29.60
2019-05-29T11:12:27.977Z,29.50
2019-05-29T11:15:28.482Z,29.60
2019-05-29T11:18:49.738Z,29.60
2019-05-29T11:21:44.278Z,29.60
2019-05-29T11:24:38.160Z,29.70
2019-05-29T11:27:31.592Z,29.70
2019-05-29T11:30:26.324Z,29.70
2019-05-29T11:33:29.089Z,29.80
2019-05-29T11:36:21.945Z,29.70
2019-05-29T11:39:17.537Z,29.80
2019-05-29T11:42:26.311Z,29.80
2019-05-29T11:45:05.211Z,29.90
2019-05-29T11:48:01.626Z,29.90
2019-05-29T11:50:56.180Z,29.90
2019-05-29T11:53:51.335Z,29.90
2019-05-29T11:56:46.109Z,29.90
2019-05-29T11:59:45.696Z,30.00
2019-05-29T12:03:07.928Z,30.00
2019-05-29T12:06:16.634Z,30.00
2019-05-29T12:09:31.306Z,29.90
2019-05-29T12:12:28.200Z,29.90
2019-05-29T12:16:02.404Z,29.90
2019-05-29T12:19:15.896Z,29.90
2019-05-29T12:23:07.011Z,29.90
2019-05-29T12:25:43.525Z,29.80
2019-05-29T12:28:39.016Z,29.80
2019-05-29T12:31:37.366Z,29.80
2019-05-29T12:34:36.557Z,29.80
2019-05-29T12:37:31.498Z,30.10
2019-05-29T12:40:26.833Z,30.30
2019-05-29T12:43:27.591Z,30.30
2019-05-29T12:46:22.448Z,30.40
2019-05-29T12:49:20.560Z,30.40
2019-05-29T12:52:15.724Z,30.40
2019-05-29T12:55:12.946Z,30.20
2019-05-29T12:58:06.266Z,30.30
2019-05-29T13:01:02.811Z,30.40
2019-05-29T13:03:58.650Z,30.50
2019-05-29T13:06:54.355Z,30.60
2019-05-29T13:09:48.429Z,30.60
2019-05-29T13:12:44.673Z,30.60
2019-05-29T13:15:39.568Z,30.70
2019-05-29T13:18:35.489Z,30.80
2019-05-29T13:21:30.338Z,30.80
2019-05-29T13:24:24.454Z,30.80
2019-05-29T13:27:22.926Z,30.90
2019-05-29T13:30:17.318Z,30.90
2019-05-29T13:33:11.625Z,30.90
2019-05-29T13:36:06.696Z,30.90
2019-05-29T13:39:02.243Z,31.00
2019-05-29T13:41:58.603Z,31.00
2019-05-29T13:44:58.949Z,31.10
2019-05-29T13:47:52.669Z,31.10
2019-05-29T13:50:48.972Z,31.10
2019-05-29T13:54:01.932Z,31.10
